sensor_id;sensor_type;location;lat;lon;timestamp;temperature;humidity
19813;DHT22;10066;48.108;11.448;2022-08-30T00:01:29;14.90;99.90
19813;DHT22;10066;48.108;11.448;2022-08-30T00:03:56;14.80;99.90
19813;DHT22;10066;48.108;11.448;2022-08-30T00:06:24;14.80;99.90
19813;DHT22;10066;48.108;11.448;2022-08-30T00:08:52;14.80;99.90
19813;DHT22;10066;48.108;11.448;2022-08-30T00:11:21;14.80;99.90
19813;DHT22;10066;48.108;11.448;2022-08-30T00:13:50;14.70;99.90
19813;DHT22;10066;48.108;11.448;2022-08-30T00:16:18;14.70;99.90
19813;DHT22;10066;48.108;11.448;2022-08-30T00:18:47;14.70;99.90
19813;DHT22;10066;48.108;11.448;2022-08-30T00:21:14;14.70;99.90
19813;DHT22;10066;48.108;11.448;2022-08-30T00:23:41;14.70;99.90
19813;DHT22;10066;48.108;11.448;2022-08-30T00:26:08;14.60;99.90
19813;DHT22;10066;48.108;11.448;2022-08-30T00:28:35;14.60;99.90
19813;DHT22;10066;48.108;11.448;2022-08-30T00:31:03;14.60;99.90
19813;DHT22;10066;48.108;11.448;2022-08-30T00:33:30;14.60;99.90
19813;DHT22;10066;48.108;11.448;2022-08-30T00:35:58;14.60;99.90
19813;DHT22;10066;48.108;11.448;2022-08-30T00:38:25;14.60;99.90
19813;DHT22;10066;48.108;11.448;2022-08-30T00:40:52;14.50;99.90
19813;DHT22;10066;48.108;11.448;2022-08-30T00:43:22;14.50;99.90
19813;DHT22;10066;48.108;11.448;2022-08-30T00:45:49;14.50;99.90
19813;DHT22;10066;48.108;11.448;2022-08-30T00:48:16;14.50;99.90
19813;DHT22;10066;48.108;11.448;2022-08-30T00:50:46;14.50;99.90
19813;DHT22;10066;48.108;11.448;2022-08-30T00:53:17;14.50;99.90
19813;DHT22;10066;48.108;11.448;2022-08-30T00:55:45;14.40;99.90
19813;DHT22;10066;48.108;11.448;2022-08-30T00:58:16;14.40;99.90
19813;DHT22;10066;48.108;11.448;2022-08-30T01:00:46;14.40;99.90
19813;DHT22;10066;48.108;11.448;2022-08-30T01:03:14;14.30;99.90
19813;DHT22;10066;48.108;11.448;2022-08-30T01:05:41;14.30;99.90
19813;DHT22;10066;48.108;11.448;2022-08-30T01:08:08;14.30;99.90
19813;DHT22;10066;48.108;11.448;2022-08-30T01:10:38;14.30;99.90
19813;DHT22;10066;48.108;11.448;2022-08-30T01:13:06;14.30;99.90
19813;DHT22;10066;48.108;11.448;2022-08-30T01:15:34;14.30;99.90
19813;DHT22;10066;48.108;11.448;2022-08-30T01:18:02;14.30;99.90
19813;DHT22;10066;48.108;11.448;2022-08-30T01:20:34;14.30;99.90
19813;DHT22;10066;48.108;11.448;2022-08-30T01:23:08;14.30;99.90
19813;DHT22;10066;48.108;11.448;2022-08-30T01:25:36;14.20;99.90
19813;DHT22;10066;48.108;11.448;2022-08-30T01:28:11;14.20;99.90
19813;DHT22;10066;48.108;11.448;2022-08-30T01:30:39;14.20;99.90
19813;DHT22;10066;48.108;11.448;2022-08-30T01:33:08;14.20;99.90
19813;DHT22;10066;48.108;11.448;2022-08-30T01:35:43;14.20;99.90
19813;DHT22;10066;48.108;11.448;2022-08-30T01:38:13;14.20;99.90
19813;DHT22;10066;48.108;11.448;2022-08-30T01:40:41;14.20;99.90
19813;DHT22;10066;48.108;11.448;2022-08-30T01:43:09;14.10;99.90
19813;DHT22;10066;48.108;11.448;2022-08-30T01:45:36;14.10;99.90
19813;DHT22;10066;48.108;11.448;2022-08-30T01:48:04;14.10;99.90
19813;DHT22;10066;48.108;11.448;2022-08-30T01:50:32;14.10;99.90
19813;DHT22;10066;48.108;11.448;2022-08-30T01:52:59;14.10;99.90
19813;DHT22;10066;48.108;11.448;2022-08-30T01:55:27;14.00;99.90
19813;DHT22;10066;48.108;11.448;2022-08-30T01:57:54;14.00;99.90
19813;DHT22;10066;48.108;11.448;2022-08-30T02:00:22;14.00;99.90
19813;DHT22;10066;48.108;11.448;2022-08-30T02:05:18;14.00;99.90
19813;DHT22;10066;48.108;11.448;2022-08-30T02:07:45;13.90;99.90
19813;DHT22;10066;48.108;11.448;2022-08-30T02:10:12;13.90;99.90
19813;DHT22;10066;48.108;11.448;2022-08-30T02:12:41;13.90;99.90
19813;DHT22;10066;48.108;11.448;2022-08-30T02:15:08;13.90;99.90
19813;DHT22;10066;48.108;11.448;2022-08-30T02:17:35;13.80;99.90
19813;DHT22;10066;48.108;11.448;2022-08-30T02:20:03;13.90;99.90
19813;DHT22;10066;48.108;11.448;2022-08-30T02:22:30;13.80;99.90
19813;DHT22;10066;48.108;11.448;2022-08-30T02:24:57;13.80;99.90
19813;DHT22;10066;48.108;11.448;2022-08-30T02:27:24;13.80;99.90
19813;DHT22;10066;48.108;11.448;2022-08-30T02:29:53;13.80;99.90
19813;DHT22;10066;48.108;11.448;2022-08-30T02:32:20;13.80;99.90
19813;DHT22;10066;48.108;11.448;2022-08-30T02:34:47;13.80;99.90
19813;DHT22;10066;48.108;11.448;2022-08-30T02:37:14;13.70;99.90
19813;DHT22;10066;48.108;11.448;2022-08-30T02:39:41;13.70;99.90
19813;DHT22;10066;48.108;11.448;2022-08-30T02:42:08;13.70;99.90
19813;DHT22;10066;48.108;11.448;2022-08-30T02:44:35;13.70;99.90
19813;DHT22;10066;48.108;11.448;2022-08-30T02:47:04;13.70;99.90
19813;DHT22;10066;48.108;11.448;2022-08-30T02:49:31;13.70;99.90
19813;DHT22;10066;48.108;11.448;2022-08-30T02:51:58;13.60;99.90
19813;DHT22;10066;48.108;11.448;2022-08-30T02:54:25;13.60;99.90
19813;DHT22;10066;48.108;11.448;2022-08-30T02:56:53;13.60;99.90
19813;DHT22;10066;48.108;11.448;2022-08-30T02:59:20;13.60;99.90
19813;DHT22;10066;48.108;11.448;2022-08-30T03:01:47;13.60;99.90
19813;DHT22;10066;48.108;11.448;2022-08-30T03:04:16;13.60;99.90
19813;DHT22;10066;48.108;11.448;2022-08-30T03:06:43;13.60;99.90
19813;DHT22;10066;48.108;11.448;2022-08-30T03:09:10;13.60;99.90
19813;DHT22;10066;48.108;11.448;2022-08-30T03:14:04;13.50;99.90
19813;DHT22;10066;48.108;11.448;2022-08-30T03:16:31;13.50;99.90
19813;DHT22;10066;48.108;11.448;2022-08-30T03:18:58;13.50;99.90
19813;DHT22;10066;48.108;11.448;2022-08-30T03:21:27;13.50;99.90
19813;DHT22;10066;48.108;11.448;2022-08-30T03:23:53;13.50;99.90
19813;DHT22;10066;48.108;11.448;2022-08-30T03:26:20;13.40;99.90
19813;DHT22;10066;48.108;11.448;2022-08-30T03:28:47;13.40;99.90
19813;DHT22;10066;48.108;11.448;2022-08-30T03:31:14;13.40;99.90
19813;DHT22;10066;48.108;11.448;2022-08-30T03:33:55;13.40;99.90
19813;DHT22;10066;48.108;11.448;2022-08-30T03:36:22;13.40;99.90
19813;DHT22;10066;48.108;11.448;2022-08-30T03:38:50;13.40;99.90
19813;DHT22;10066;48.108;11.448;2022-08-30T03:41:17;13.30;99.90
19813;DHT22;10066;48.108;11.448;2022-08-30T03:43:44;13.30;99.90
19813;DHT22;10066;48.108;11.448;2022-08-30T03:46:12;13.30;99.90
19813;DHT22;10066;48.108;11.448;2022-08-30T03:48:39;13.30;99.90
19813;DHT22;10066;48.108;11.448;2022-08-30T03:51:07;13.30;99.90
19813;DHT22;10066;48.108;11.448;2022-08-30T03:53:34;13.30;99.90
19813;DHT22;10066;48.108;11.448;2022-08-30T03:56:03;13.30;99.90
19813;DHT22;10066;48.108;11.448;2022-08-30T03:58:30;13.30;99.90
19813;DHT22;10066;48.108;11.448;2022-08-30T04:00:58;13.20;99.90
19813;DHT22;10066;48.108;11.448;2022-08-30T04:03:25;13.20;99.90
19813;DHT22;10066;48.108;11.448;2022-08-30T04:05:52;13.20;99.90
19813;DHT22;10066;48.108;11.448;2022-08-30T04:08:20;13.20;99.90
19813;DHT22;10066;48.108;11.448;2022-08-30T04:10:47;13.20;99.90
19813;DHT22;10066;48.108;11.448;2022-08-30T04:13:16;13.20;99.90
19813;DHT22;10066;48.108;11.448;2022-08-30T04:15:43;13.20;99.90
19813;DHT22;10066;48.108;11.448;2022-08-30T04:18:10;13.20;99.90
19813;DHT22;10066;48.108;11.448;2022-08-30T04:20:37;13.10;99.90
19813;DHT22;10066;48.108;11.448;2022-08-30T04:23:04;13.10;99.90
19813;DHT22;10066;48.108;11.448;2022-08-30T04:25:32;13.10;99.90
19813;DHT22;10066;48.108;11.448;2022-08-30T04:27:59;13.10;99.90
19813;DHT22;10066;48.108;11.448;2022-08-30T04:30:27;13.10;99.90
19813;DHT22;10066;48.108;11.448;2022-08-30T04:32:55;13.10;99.90
19813;DHT22;10066;48.108;11.448;2022-08-30T04:35:22;13.10;99.90
19813;DHT22;10066;48.108;11.448;2022-08-30T04:37:49;13.10;99.90
19813;DHT22;10066;48.108;11.448;2022-08-30T04:40:16;13.10;99.90
19813;DHT22;10066;48.108;11.448;2022-08-30T04:42:43;13.10;99.90
19813;DHT22;10066;48.108;11.448;2022-08-30T04:45:12;13.10;99.90
19813;DHT22;10066;48.108;11.448;2022-08-30T04:47:42;13.10;99.90
19813;DHT22;10066;48.108;11.448;2022-08-30T04:50:11;13.10;99.90
19813;DHT22;10066;48.108;11.448;2022-08-30T04:52:38;13.20;99.90
19813;DHT22;10066;48.108;11.448;2022-08-30T04:55:06;13.20;99.90
19813;DHT22;10066;48.108;11.448;2022-08-30T04:57:35;13.20;99.90
19813;DHT22;10066;48.108;11.448;2022-08-30T05:00:04;13.20;99.90
19813;DHT22;10066;48.108;11.448;2022-08-30T05:02:31;13.20;99.90
19813;DHT22;10066;48.108;11.448;2022-08-30T05:05:00;13.30;99.90
19813;DHT22;10066;48.108;11.448;2022-08-30T05:07:45;13.30;99.90
19813;DHT22;10066;48.108;11.448;2022-08-30T05:10:12;13.30;99.90
19813;DHT22;10066;48.108;11.448;2022-08-30T05:12:40;13.30;99.90
19813;DHT22;10066;48.108;11.448;2022-08-30T05:15:09;13.40;99.90
19813;DHT22;10066;48.108;11.448;2022-08-30T05:17:37;13.40;99.90
19813;DHT22;10066;48.108;11.448;2022-08-30T05:20:09;13.40;99.90
19813;DHT22;10066;48.108;11.448;2022-08-30T05:22:36;13.50;99.90
19813;DHT22;10066;48.108;11.448;2022-08-30T05:25:05;13.60;99.90
19813;DHT22;10066;48.108;11.448;2022-08-30T05:27:32;13.60;99.90
19813;DHT22;10066;48.108;11.448;2022-08-30T05:29:59;13.70;99.90
19813;DHT22;10066;48.108;11.448;2022-08-30T05:32:26;14.00;99.90
19813;DHT22;10066;48.108;11.448;2022-08-30T05:34:53;14.60;99.90
19813;DHT22;10066;48.108;11.448;2022-08-30T05:37:21;15.40;99.90
19813;DHT22;10066;48.108;11.448;2022-08-30T05:39:48;16.30;99.90
19813;DHT22;10066;48.108;11.448;2022-08-30T05:42:15;17.10;99.90
19813;DHT22;10066;48.108;11.448;2022-08-30T05:44:42;17.80;99.90
19813;DHT22;10066;48.108;11.448;2022-08-30T05:47:09;18.50;99.90
19813;DHT22;10066;48.108;11.448;2022-08-30T05:49:36;19.20;99.90
19813;DHT22;10066;48.108;11.448;2022-08-30T05:52:03;19.80;99.90
19813;DHT22;10066;48.108;11.448;2022-08-30T05:54:31;20.30;99.90
19813;DHT22;10066;48.108;11.448;2022-08-30T05:56:58;20.90;99.90
19813;DHT22;10066;48.108;11.448;2022-08-30T05:59:25;21.40;99.90
19813;DHT22;10066;48.108;11.448;2022-08-30T06:01:56;21.80;99.90
19813;DHT22;10066;48.108;11.448;2022-08-30T06:04:24;22.30;99.90
19813;DHT22;10066;48.108;11.448;2022-08-30T06:06:51;22.70;99.90
19813;DHT22;10066;48.108;11.448;2022-08-30T06:09:19;23.00;99.90
19813;DHT22;10066;48.108;11.448;2022-08-30T06:11:47;23.00;99.90
19813;DHT22;10066;48.108;11.448;2022-08-30T06:14:14;22.70;99.90
19813;DHT22;10066;48.108;11.448;2022-08-30T06:16:41;22.00;99.90
19813;DHT22;10066;48.108;11.448;2022-08-30T06:21:38;20.50;99.90
19813;DHT22;10066;48.108;11.448;2022-08-30T06:24:07;20.00;99.90
19813;DHT22;10066;48.108;11.448;2022-08-30T06:26:37;19.60;99.90
19813;DHT22;10066;48.108;11.448;2022-08-30T06:29:07;19.30;99.90
19813;DHT22;10066;48.108;11.448;2022-08-30T06:31:34;19.00;99.90
19813;DHT22;10066;48.108;11.448;2022-08-30T06:34:02;18.80;99.90
19813;DHT22;10066;48.108;11.448;2022-08-30T06:36:29;18.60;99.90
19813;DHT22;10066;48.108;11.448;2022-08-30T06:38:57;18.50;99.90
19813;DHT22;10066;48.108;11.448;2022-08-30T06:41:27;18.40;99.90
19813;DHT22;10066;48.108;11.448;2022-08-30T06:43:56;18.40;99.90
19813;DHT22;10066;48.108;11.448;2022-08-30T06:46:26;18.40;99.90
19813;DHT22;10066;48.108;11.448;2022-08-30T06:48:54;18.40;99.90
19813;DHT22;10066;48.108;11.448;2022-08-30T06:51:22;18.40;99.90
19813;DHT22;10066;48.108;11.448;2022-08-30T06:53:50;18.40;99.90
19813;DHT22;10066;48.108;11.448;2022-08-30T06:56:18;18.50;99.90
19813;DHT22;10066;48.108;11.448;2022-08-30T06:58:46;18.50;99.90
19813;DHT22;10066;48.108;11.448;2022-08-30T07:01:15;18.60;99.90
19813;DHT22;10066;48.108;11.448;2022-08-30T07:03:44;18.70;99.90
19813;DHT22;10066;48.108;11.448;2022-08-30T07:06:12;18.70;99.90
19813;DHT22;10066;48.108;11.448;2022-08-30T07:08:39;18.80;99.90
19813;DHT22;10066;48.108;11.448;2022-08-30T07:11:06;18.90;99.90
19813;DHT22;10066;48.108;11.448;2022-08-30T07:13:34;19.00;99.90
19813;DHT22;10066;48.108;11.448;2022-08-30T07:16:08;19.10;99.90
19813;DHT22;10066;48.108;11.448;2022-08-30T07:18:35;19.20;99.90
19813;DHT22;10066;48.108;11.448;2022-08-30T07:21:23;19.30;99.90
19813;DHT22;10066;48.108;11.448;2022-08-30T07:23:53;19.40;99.90
19813;DHT22;10066;48.108;11.448;2022-08-30T07:26:22;19.40;99.90
19813;DHT22;10066;48.108;11.448;2022-08-30T07:28:50;19.60;99.90
19813;DHT22;10066;48.108;11.448;2022-08-30T07:31:19;19.70;99.90
19813;DHT22;10066;48.108;11.448;2022-08-30T07:33:47;19.80;99.90
19813;DHT22;10066;48.108;11.448;2022-08-30T07:36:15;19.90;99.90
19813;DHT22;10066;48.108;11.448;2022-08-30T07:38:45;20.00;99.90
19813;DHT22;10066;48.108;11.448;2022-08-30T07:41:17;20.10;99.90
19813;DHT22;10066;48.108;11.448;2022-08-30T07:43:44;20.20;99.90
19813;DHT22;10066;48.108;11.448;2022-08-30T07:46:11;20.30;99.90
19813;DHT22;10066;48.108;11.448;2022-08-30T07:48:39;20.40;99.90
19813;DHT22;10066;48.108;11.448;2022-08-30T07:51:09;20.50;99.90
19813;DHT22;10066;48.108;11.448;2022-08-30T07:53:36;20.60;99.90
19813;DHT22;10066;48.108;11.448;2022-08-30T07:56:06;20.60;99.90
19813;DHT22;10066;48.108;11.448;2022-08-30T07:58:33;20.70;99.90
19813;DHT22;10066;48.108;11.448;2022-08-30T08:01:02;20.80;99.90
19813;DHT22;10066;48.108;11.448;2022-08-30T08:03:29;20.90;99.90
19813;DHT22;10066;48.108;11.448;2022-08-30T08:05:57;21.00;99.90
19813;DHT22;10066;48.108;11.448;2022-08-30T08:08:24;21.10;99.90
19813;DHT22;10066;48.108;11.448;2022-08-30T08:10:51;21.20;99.90
19813;DHT22;10066;48.108;11.448;2022-08-30T08:13:19;21.30;99.90
19813;DHT22;10066;48.108;11.448;2022-08-30T08:15:47;21.30;99.90
19813;DHT22;10066;48.108;11.448;2022-08-30T08:18:14;21.40;99.90
19813;DHT22;10066;48.108;11.448;2022-08-30T08:20:41;21.50;99.90
19813;DHT22;10066;48.108;11.448;2022-08-30T08:23:08;21.60;99.90
19813;DHT22;10066;48.108;11.448;2022-08-30T08:25:38;21.70;99.90
19813;DHT22;10066;48.108;11.448;2022-08-30T08:28:05;21.80;99.90
19813;DHT22;10066;48.108;11.448;2022-08-30T08:30:35;21.80;99.90
19813;DHT22;10066;48.108;11.448;2022-08-30T08:33:02;21.90;99.90
19813;DHT22;10066;48.108;11.448;2022-08-30T08:35:29;22.00;99.90
19813;DHT22;10066;48.108;11.448;2022-08-30T08:37:57;22.00;99.90
19813;DHT22;10066;48.108;11.448;2022-08-30T08:40:25;22.10;99.90
19813;DHT22;10066;48.108;11.448;2022-08-30T08:43:02;22.20;99.90
19813;DHT22;10066;48.108;11.448;2022-08-30T08:45:51;22.30;99.90
19813;DHT22;10066;48.108;11.448;2022-08-30T08:48:32;22.40;99.90
19813;DHT22;10066;48.108;11.448;2022-08-30T08:51:01;22.50;99.90
19813;DHT22;10066;48.108;11.448;2022-08-30T08:53:52;22.60;99.90
19813;DHT22;10066;48.108;11.448;2022-08-30T08:56:22;22.70;99.90
19813;DHT22;10066;48.108;11.448;2022-08-30T08:58:51;22.70;99.90
19813;DHT22;10066;48.108;11.448;2022-08-30T09:01:22;22.70;99.90
19813;DHT22;10066;48.108;11.448;2022-08-30T09:03:50;22.70;99.90
19813;DHT22;10066;48.108;11.448;2022-08-30T09:06:40;22.80;99.90
19813;DHT22;10066;48.108;11.448;2022-08-30T09:09:09;22.90;99.90
19813;DHT22;10066;48.108;11.448;2022-08-30T09:11:37;23.00;99.90
19813;DHT22;10066;48.108;11.448;2022-08-30T09:14:11;23.10;99.90
19813;DHT22;10066;48.108;11.448;2022-08-30T09:16:53;23.10;99.90
19813;DHT22;10066;48.108;11.448;2022-08-30T09:19:40;23.20;99.90
19813;DHT22;10066;48.108;11.448;2022-08-30T09:22:15;23.30;99.90
19813;DHT22;10066;48.108;11.448;2022-08-30T09:24:48;23.30;99.90
19813;DHT22;10066;48.108;11.448;2022-08-30T09:27:24;23.40;99.90
19813;DHT22;10066;48.108;11.448;2022-08-30T09:29:56;23.30;99.90
19813;DHT22;10066;48.108;11.448;2022-08-30T09:32:33;23.40;99.90
19813;DHT22;10066;48.108;11.448;2022-08-30T09:35:00;23.40;99.90
19813;DHT22;10066;48.108;11.448;2022-08-30T09:37:31;23.50;99.90
19813;DHT22;10066;48.108;11.448;2022-08-30T09:40:00;23.50;99.90
19813;DHT22;10066;48.108;11.448;2022-08-30T09:42:28;23.60;99.90
19813;DHT22;10066;48.108;11.448;2022-08-30T09:44:57;23.60;99.90
19813;DHT22;10066;48.108;11.448;2022-08-30T09:47:39;23.60;99.90
19813;DHT22;10066;48.108;11.448;2022-08-30T09:50:09;23.70;99.90
19813;DHT22;10066;48.108;11.448;2022-08-30T09:52:46;23.80;99.90
19813;DHT22;10066;48.108;11.448;2022-08-30T09:55:26;23.90;99.90
19813;DHT22;10066;48.108;11.448;2022-08-30T09:58:01;23.80;99.90
19813;DHT22;10066;48.108;11.448;2022-08-30T10:00:30;23.90;99.90
19813;DHT22;10066;48.108;11.448;2022-08-30T10:03:20;23.90;99.90
19813;DHT22;10066;48.108;11.448;2022-08-30T10:05:56;23.90;99.90
19813;DHT22;10066;48.108;11.448;2022-08-30T10:08:31;23.90;99.90
19813;DHT22;10066;48.108;11.448;2022-08-30T10:11:04;24.00;99.90
19813;DHT22;10066;48.108;11.448;2022-08-30T10:13:51;24.00;99.90
19813;DHT22;10066;48.108;11.448;2022-08-30T10:16:29;24.10;99.90
19813;DHT22;10066;48.108;11.448;2022-08-30T10:19:09;24.20;99.90
19813;DHT22;10066;48.108;11.448;2022-08-30T10:21:41;24.30;99.90
19813;DHT22;10066;48.108;11.448;2022-08-30T10:24:11;24.30;99.90
19813;DHT22;10066;48.108;11.448;2022-08-30T10:26:43;24.30;99.90
19813;DHT22;10066;48.108;11.448;2022-08-30T10:29:15;24.40;99.90
19813;DHT22;10066;48.108;11.448;2022-08-30T10:31:46;24.30;99.90
19813;DHT22;10066;48.108;11.448;2022-08-30T10:34:23;24.30;99.90
19813;DHT22;10066;48.108;11.448;2022-08-30T10:36:56;24.40;99.90
19813;DHT22;10066;48.108;11.448;2022-08-30T10:39:30;24.30;99.90
19813;DHT22;10066;48.108;11.448;2022-08-30T10:42:03;24.30;99.90
19813;DHT22;10066;48.108;11.448;2022-08-30T10:44:35;24.40;99.90
19813;DHT22;10066;48.108;11.448;2022-08-30T10:47:10;24.40;99.90
19813;DHT22;10066;48.108;11.448;2022-08-30T10:49:44;24.30;99.90
19813;DHT22;10066;48.108;11.448;2022-08-30T10:52:21;24.40;99.90
19813;DHT22;10066;48.108;11.448;2022-08-30T10:54:52;24.50;99.90
19813;DHT22;10066;48.108;11.448;2022-08-30T10:57:19;24.50;99.90
19813;DHT22;10066;48.108;11.448;2022-08-30T10:59:50;24.60;99.90
19813;DHT22;10066;48.108;11.448;2022-08-30T11:05:44;24.60;99.90
19813;DHT22;10066;48.108;11.448;2022-08-30T11:08:21;24.60;99.90
19813;DHT22;10066;48.108;11.448;2022-08-30T11:11:00;24.70;99.90
19813;DHT22;10066;48.108;11.448;2022-08-30T11:13:30;24.70;99.90
19813;DHT22;10066;48.108;11.448;2022-08-30T11:16:02;24.80;99.90
19813;DHT22;10066;48.108;11.448;2022-08-30T11:18:33;24.90;99.90
19813;DHT22;10066;48.108;11.448;2022-08-30T11:21:20;25.00;99.90
19813;DHT22;10066;48.108;11.448;2022-08-30T11:24:01;25.00;99.90
19813;DHT22;10066;48.108;11.448;2022-08-30T11:29:41;25.10;99.90
19813;DHT22;10066;48.108;11.448;2022-08-30T11:35:35;25.20;99.90
19813;DHT22;10066;48.108;11.448;2022-08-30T11:38:13;25.30;99.90
19813;DHT22;10066;48.108;11.448;2022-08-30T11:40:48;25.30;99.90
19813;DHT22;10066;48.108;11.448;2022-08-30T11:43:49;25.30;99.90
19813;DHT22;10066;48.108;11.448;2022-08-30T11:46:20;25.30;99.90
19813;DHT22;10066;48.108;11.448;2022-08-30T11:49:04;25.00;99.90
19813;DHT22;10066;48.108;11.448;2022-08-30T11:52:03;25.10;99.90
19813;DHT22;10066;48.108;11.448;2022-08-30T11:54:36;25.00;99.10
19813;DHT22;10066;48.108;11.448;2022-08-30T11:57:15;25.00;99.90
19813;DHT22;10066;48.108;11.448;2022-08-30T11:59:54;25.00;99.60
19813;DHT22;10066;48.108;11.448;2022-08-30T12:02:50;25.00;99.80
19813;DHT22;10066;48.108;11.448;2022-08-30T12:05:54;25.00;99.70
19813;DHT22;10066;48.108;11.448;2022-08-30T12:08:55;25.10;99.90
19813;DHT22;10066;48.108;11.448;2022-08-30T12:11:55;25.10;98.80
19813;DHT22;10066;48.108;11.448;2022-08-30T12:14:38;25.20;99.90
19813;DHT22;10066;48.108;11.448;2022-08-30T12:17:25;25.20;99.90
19813;DHT22;10066;48.108;11.448;2022-08-30T12:20:16;25.20;99.30
19813;DHT22;10066;48.108;11.448;2022-08-30T12:22:44;25.20;99.40
19813;DHT22;10066;48.108;11.448;2022-08-30T12:25:19;25.20;98.80
19813;DHT22;10066;48.108;11.448;2022-08-30T12:27:49;25.30;99.40
19813;DHT22;10066;48.108;11.448;2022-08-30T12:30:24;25.30;99.90
19813;DHT22;10066;48.108;11.448;2022-08-30T12:32:52;25.40;99.50
19813;DHT22;10066;48.108;11.448;2022-08-30T12:35:22;25.50;99.80
19813;DHT22;10066;48.108;11.448;2022-08-30T12:37:58;25.50;99.20
19813;DHT22;10066;48.108;11.448;2022-08-30T12:40:26;25.60;97.80
19813;DHT22;10066;48.108;11.448;2022-08-30T12:42:56;25.70;99.40
19813;DHT22;10066;48.108;11.448;2022-08-30T12:45:27;25.70;98.70
19813;DHT22;10066;48.108;11.448;2022-08-30T12:47:59;25.80;99.00
19813;DHT22;10066;48.108;11.448;2022-08-30T12:50:28;25.80;99.00
19813;DHT22;10066;48.108;11.448;2022-08-30T12:52:58;25.90;99.80
19813;DHT22;10066;48.108;11.448;2022-08-30T12:55:27;25.90;97.90
19813;DHT22;10066;48.108;11.448;2022-08-30T12:57:59;25.90;98.40
19813;DHT22;10066;48.108;11.448;2022-08-30T13:00:29;25.80;97.30
19813;DHT22;10066;48.108;11.448;2022-08-30T13:03:00;25.80;99.20
19813;DHT22;10066;48.108;11.448;2022-08-30T13:05:45;25.70;97.80
19813;DHT22;10066;48.108;11.448;2022-08-30T13:08:16;25.70;96.10
19813;DHT22;10066;48.108;11.448;2022-08-30T13:10:56;25.60;98.70
19813;DHT22;10066;48.108;11.448;2022-08-30T13:13:41;25.60;96.50
19813;DHT22;10066;48.108;11.448;2022-08-30T13:16:21;25.60;97.40
19813;DHT22;10066;48.108;11.448;2022-08-30T13:18:50;25.50;96.80
19813;DHT22;10066;48.108;11.448;2022-08-30T13:21:21;25.50;97.10
19813;DHT22;10066;48.108;11.448;2022-08-30T13:23:49;25.50;96.00
19813;DHT22;10066;48.108;11.448;2022-08-30T13:26:16;25.50;97.60
19813;DHT22;10066;48.108;11.448;2022-08-30T13:28:49;25.60;98.30
19813;DHT22;10066;48.108;11.448;2022-08-30T13:31:17;25.60;97.30
19813;DHT22;10066;48.108;11.448;2022-08-30T13:33:44;25.60;96.90
19813;DHT22;10066;48.108;11.448;2022-08-30T13:36:12;25.60;97.30
19813;DHT22;10066;48.108;11.448;2022-08-30T13:38:40;25.70;97.20
19813;DHT22;10066;48.108;11.448;2022-08-30T13:41:07;25.60;96.60
19813;DHT22;10066;48.108;11.448;2022-08-30T13:43:34;25.70;96.60
19813;DHT22;10066;48.108;11.448;2022-08-30T13:46:02;25.60;96.10
19813;DHT22;10066;48.108;11.448;2022-08-30T13:48:30;25.60;95.30
19813;DHT22;10066;48.108;11.448;2022-08-30T13:50:57;25.50;94.60
19813;DHT22;10066;48.108;11.448;2022-08-30T13:53:25;25.50;95.60
19813;DHT22;10066;48.108;11.448;2022-08-30T13:55:51;25.40;95.80
19813;DHT22;10066;48.108;11.448;2022-08-30T13:58:18;25.40;95.90
19813;DHT22;10066;48.108;11.448;2022-08-30T14:00:45;25.40;95.80
19813;DHT22;10066;48.108;11.448;2022-08-30T14:03:14;25.30;93.90
19813;DHT22;10066;48.108;11.448;2022-08-30T14:05:42;25.30;94.40
19813;DHT22;10066;48.108;11.448;2022-08-30T14:08:12;25.30;95.20
19813;DHT22;10066;48.108;11.448;2022-08-30T14:10:39;25.30;94.00
19813;DHT22;10066;48.108;11.448;2022-08-30T14:13:06;25.30;94.20
19813;DHT22;10066;48.108;11.448;2022-08-30T14:15:35;25.20;94.70
19813;DHT22;10066;48.108;11.448;2022-08-30T14:18:03;25.20;95.20
19813;DHT22;10066;48.108;11.448;2022-08-30T14:20:31;25.20;95.30
19813;DHT22;10066;48.108;11.448;2022-08-30T14:23:00;25.30;95.40
19813;DHT22;10066;48.108;11.448;2022-08-30T14:25:27;25.30;94.10
19813;DHT22;10066;48.108;11.448;2022-08-30T14:27:54;25.30;94.20
19813;DHT22;10066;48.108;11.448;2022-08-30T14:30:22;25.30;94.10
19813;DHT22;10066;48.108;11.448;2022-08-30T14:32:49;25.40;93.00
19813;DHT22;10066;48.108;11.448;2022-08-30T14:35:17;25.40;94.40
19813;DHT22;10066;48.108;11.448;2022-08-30T14:37:47;25.50;93.10
19813;DHT22;10066;48.108;11.448;2022-08-30T14:40:15;25.50;92.00
19813;DHT22;10066;48.108;11.448;2022-08-30T14:42:43;25.50;91.50
19813;DHT22;10066;48.108;11.448;2022-08-30T14:45:10;25.50;92.20
19813;DHT22;10066;48.108;11.448;2022-08-30T14:47:37;25.50;90.40
19813;DHT22;10066;48.108;11.448;2022-08-30T14:50:05;25.50;90.30
19813;DHT22;10066;48.108;11.448;2022-08-30T14:52:33;25.50;91.60
19813;DHT22;10066;48.108;11.448;2022-08-30T14:55:05;25.50;91.40
19813;DHT22;10066;48.108;11.448;2022-08-30T14:57:33;25.50;90.00
19813;DHT22;10066;48.108;11.448;2022-08-30T15:00:00;25.40;90.20
19813;DHT22;10066;48.108;11.448;2022-08-30T15:02:27;25.40;90.20
19813;DHT22;10066;48.108;11.448;2022-08-30T15:04:54;25.40;90.80
19813;DHT22;10066;48.108;11.448;2022-08-30T15:07:21;25.40;91.10
19813;DHT22;10066;48.108;11.448;2022-08-30T15:09:47;25.40;91.80
19813;DHT22;10066;48.108;11.448;2022-08-30T15:12:16;25.40;91.10
19813;DHT22;10066;48.108;11.448;2022-08-30T15:14:43;25.40;91.30
19813;DHT22;10066;48.108;11.448;2022-08-30T15:17:10;25.50;91.60
19813;DHT22;10066;48.108;11.448;2022-08-30T15:19:37;25.30;88.70
19813;DHT22;10066;48.108;11.448;2022-08-30T15:22:05;25.30;87.40
19813;DHT22;10066;48.108;11.448;2022-08-30T15:24:33;25.30;87.60
19813;DHT22;10066;48.108;11.448;2022-08-30T15:27:00;25.30;87.40
19813;DHT22;10066;48.108;11.448;2022-08-30T15:29:29;25.20;85.70
19813;DHT22;10066;48.108;11.448;2022-08-30T15:31:55;25.20;85.80
19813;DHT22;10066;48.108;11.448;2022-08-30T15:34:23;25.20;85.50
19813;DHT22;10066;48.108;11.448;2022-08-30T15:36:50;25.20;86.50
19813;DHT22;10066;48.108;11.448;2022-08-30T15:39:19;25.20;87.40
19813;DHT22;10066;48.108;11.448;2022-08-30T15:41:47;25.20;87.40
19813;DHT22;10066;48.108;11.448;2022-08-30T15:44:15;25.20;88.50
19813;DHT22;10066;48.108;11.448;2022-08-30T15:46:44;25.20;88.10
19813;DHT22;10066;48.108;11.448;2022-08-30T15:49:17;25.00;85.90
19813;DHT22;10066;48.108;11.448;2022-08-30T15:51:46;25.00;86.30